Time,TemperatureF,DewpointF,PressureIn,WindDirection,WindDirectionDegrees,WindSpeedMPH,WindSpeedGustMPH,Humidity,HourlyPrecipIn,Conditions,Clouds,dailyrainin,SoftwareType,DateUTC
2013-09-11 00:00:00,73.0,71.2,30.00,North,7,0.0,0.0,94,0.00,,,0.00,WUHU216DAVISVP2,2013-09-11 05:00:00,
2013-09-11 00:27:00,72.8,71.0,29.99,NNE,31,0.0,0.0,94,0.00,,,0.00,WUHU216DAVISVP2,2013-09-11 05:27:00,
2013-09-11 00:30:00,72.9,71.4,29.99,NNE,30,0.0,1.0,95,0.00,,,0.00,WUHU216DAVISVP2,2013-09-11 05:30:00,
2013-09-11 00:57:00,73.0,71.5,29.99,NNE,31,0.0,1.0,95,0.00,,,0.00,WUHU216DAVISVP2,2013-09-11 05:57:00,
2013-09-11 01:00:00,73.0,71.5,29.99,NNE,30,0.0,1.0,95,0.00,,,0.00,WUHU216DAVISVP2,2013-09-11 06:00:00,
2013-09-11 01:27:00,72.8,71.3,29.99,NNE,23,1.3,3.9,95,0.00,,,0.00,WUHU216DAVISVP2,2013-09-11 06:27:00,
2013-09-11 01:30:00,72.8,71.3,29.99,NNE,30,1.4,3.0,95,0.00,,,0.00,WUHU216DAVISVP2,2013-09-11 06:30:00,
2013-09-11 01:57:00,72.7,71.2,29.99,NNE,12,2.6,5.2,95,0.00,,,0.00,WUHU216DAVISVP2,2013-09-11 06:57:00,
2013-09-11 02:00:00,72.7,71.2,29.99,North,7,1.4,4.0,95,0.00,,,0.00,WUHU216DAVISVP2,2013-09-11 07:00:00,
2013-09-11 02:27:00,72.6,71.1,29.99,NNE,27,2.6,4.0,95,0.00,,,0.00,WUHU216DAVISVP2,2013-09-11 07:27:00,
2013-09-11 02:30:00,72.6,71.1,29.99,North,7,1.4,4.0,95,0.00,,,0.00,WUHU216DAVISVP2,2013-09-11 07:30:00,
2013-09-11 02:57:00,72.6,71.1,29.99,NNE,22,1.3,3.9,95,0.00,,,0.00,WUHU216DAVISVP2,2013-09-11 07:57:00,
2013-09-11 03:00:00,72.6,71.1,29.99,NNE,30,1.4,4.0,95,0.00,,,0.00,WUHU216DAVISVP2,2013-09-11 08:00:00,
2013-09-11 03:27:00,72.7,71.6,29.99,NNE,12,2.6,3.9,96,0.00,,,0.00,WUHU216DAVISVP2,2013-09-11 08:27:00,
2013-09-11 03:30:00,72.7,71.5,29.98,NNE,30,1.4,3.0,96,0.00,,,0.00,WUHU216DAVISVP2,2013-09-11 08:30:00,
2013-09-11 03:57:00,72.8,71.7,29.99,NNE,18,2.6,5.2,96,0.00,,,0.00,WUHU216DAVISVP2,2013-09-11 08:57:00,
2013-09-11 04:00:00,72.8,71.6,29.98,NNE,30,2.7,4.0,96,0.00,,,0.00,WUHU216DAVISVP2,2013-09-11 09:00:00,
2013-09-11 04:27:00,73.1,72.0,29.98,NE,35,2.6,4.0,96,0.00,,,0.00,WUHU216DAVISVP2,2013-09-11 09:27:00,
2013-09-11 04:30:00,73.1,71.9,29.98,NNE,30,2.7,5.0,96,0.00,,,0.00,WUHU216DAVISVP2,2013-09-11 09:30:00,
2013-09-11 04:57:00,73.4,72.3,29.98,NNE,24,2.6,6.5,96,0.00,,,0.00,WUHU216DAVISVP2,2013-09-11 09:57:00,
2013-09-11 05:00:00,73.4,72.2,29.98,NNE,30,2.7,5.0,96,0.00,,,0.00,WUHU216DAVISVP2,2013-09-11 10:00:00,
2013-09-11 05:27:00,73.3,72.2,29.98,NE,41,2.6,6.0,96,0.00,,,0.00,WUHU216DAVISVP2,2013-09-11 10:27:00,
2013-09-11 05:30:00,73.4,72.2,29.98,NNE,30,1.4,6.0,96,0.00,,,0.00,WUHU216DAVISVP2,2013-09-11 10:30:00,
2013-09-11 05:57:00,73.4,72.3,29.98,NE,34,0.0,6.5,96,0.00,,,0.00,WUHU216DAVISVP2,2013-09-11 10:57:00,
2013-09-11 06:00:00,73.4,72.2,29.98,NNE,30,1.4,5.0,96,0.00,,,0.00,WUHU216DAVISVP2,2013-09-11 11:00:00,
2013-09-11 06:27:00,73.4,72.3,29.99,NE,49,0.0,6.0,96,0.00,,,0.00,WUHU216DAVISVP2,2013-09-11 11:27:00,
2013-09-11 06:30:00,73.3,72.1,29.99,NNE,30,1.4,6.0,96,0.00,,,0.00,WUHU216DAVISVP2,2013-09-11 11:30:00,
2013-09-11 06:57:00,73.4,72.3,29.99,NNE,31,0.0,7.0,96,0.00,,,0.00,WUHU216DAVISVP2,2013-09-11 11:57:00,
2013-09-11 07:00:00,73.3,72.1,29.99,NNE,30,2.7,7.0,96,0.00,,,0.00,WUHU216DAVISVP2,2013-09-11 12:00:00,
2013-09-11 07:27:00,73.2,72.1,30.00,NE,51,0.0,4.0,96,0.00,,,0.00,WUHU216DAVISVP2,2013-09-11 12:27:00,
2013-09-11 07:30:00,73.2,72.0,30.00,NE,52,1.4,4.0,96,0.00,,,0.00,WUHU216DAVISVP2,2013-09-11 12:30:00,
2013-09-11 07:57:00,73.7,72.9,30.00,NE,39,1.3,6.0,97,0.02,,,0.02,WUHU216DAVISVP2,2013-09-11 12:57:00,
2013-09-11 08:00:00,74.0,73.1,30.00,NNE,30,1.4,6.0,97,0.00,,,0.00,WUHU216DAVISVP2,2013-09-11 13:00:00,
2013-09-11 08:27:00,74.7,73.9,30.01,ENE,74,0.0,3.9,97,0.04,,,0.04,WUHU216DAVISVP2,2013-09-11 13:27:00,
2013-09-11 08:30:00,74.8,73.9,30.01,NE,52,0.0,5.0,97,0.03,,,0.03,WUHU216DAVISVP2,2013-09-11 13:30:00,
2013-09-11 08:57:00,75.3,74.1,30.02,ENE,78,0.0,3.0,96,0.02,,,0.04,WUHU216DAVISVP2,2013-09-11 13:57:00,
2013-09-11 09:00:00,75.4,73.9,30.02,ENE,75,1.4,3.0,95,0.01,,,0.04,WUHU216DAVISVP2,2013-09-11 14:00:00,
2013-09-11 09:27:00,77.1,75.3,30.03,ESE,104,1.3,5.0,94,0.00,,,0.04,WUHU216DAVISVP2,2013-09-11 14:27:00,
2013-09-11 09:30:00,77.7,75.2,30.04,East,97,1.4,5.0,92,0.00,,,0.04,WUHU216DAVISVP2,2013-09-11 14:30:00,
2013-09-11 09:57:00,79.4,75.3,30.03,East,81,2.6,7.8,87,0.00,,,0.04,WUHU216DAVISVP2,2013-09-11 14:57:00,
2013-09-11 10:00:00,79.3,75.1,30.04,East,97,4.1,7.0,87,0.00,,,0.04,WUHU216DAVISVP2,2013-09-11 15:00:00,
2013-09-11 10:28:00,80.5,75.4,30.03,ESE,111,3.9,6.5,84,0.00,,,0.04,WUHU216DAVISVP2,2013-09-11 15:28:00,
2013-09-11 10:30:00,80.4,75.5,30.03,East,97,4.1,8.0,85,0.00,,,0.04,WUHU216DAVISVP2,2013-09-11 15:30:00,
2013-09-11 10:58:00,82.1,76.6,30.03,ESE,119,3.9,9.0,83,0.00,,,0.04,WUHU216DAVISVP2,2013-09-11 15:58:00,
2013-09-11 11:00:00,82.5,76.1,30.04,East,97,4.1,9.0,81,0.00,,,0.04,WUHU216DAVISVP2,2013-09-11 16:00:00,
2013-09-11 11:28:00,83.8,75.3,30.03,ESE,112,2.6,10.4,75,0.00,,,0.04,WUHU216DAVISVP2,2013-09-11 16:28:00,
2013-09-11 11:30:00,84.0,75.2,30.03,East,97,5.4,9.0,75,0.00,,,0.04,WUHU216DAVISVP2,2013-09-11 16:30:00,
2013-09-11 11:58:00,84.7,75.0,30.03,ESE,122,2.6,9.1,72,0.00,,,0.04,WUHU216DAVISVP2,2013-09-11 16:58:00,
2013-09-11 12:00:00,84.1,74.9,30.03,East,97,4.1,8.0,74,0.00,,,0.04,WUHU216DAVISVP2,2013-09-11 17:00:00,
2013-09-11 12:28:00,85.4,74.0,30.03,East,98,7.8,10.4,68,0.00,,,0.04,WUHU216DAVISVP2,2013-09-11 17:28:00,
2013-09-11 12:30:00,85.5,72.8,30.02,East,97,5.4,8.0,66,0.00,,,0.04,WUHU216DAVISVP2,2013-09-11 17:30:00,
2013-09-11 12:58:00,87.3,73.1,30.01,SE,143,10.4,10.4,62,0.00,,,0.04,WUHU216DAVISVP2,2013-09-11 17:58:00,
2013-09-11 13:00:00,87.0,71.4,30.01,East,97,4.1,8.0,60,0.00,,,0.04,WUHU216DAVISVP2,2013-09-11 18:00:00,
2013-09-11 13:28:00,89.2,71.9,30.00,East,97,7.8,11.7,56,0.00,,,0.04,WUHU216DAVISVP2,2013-09-11 18:28:00,
2013-09-11 13:30:00,89.5,68.4,30.00,East,97,5.4,10.0,50,0.00,,,0.04,WUHU216DAVISVP2,2013-09-11 18:30:00,
2013-09-11 13:58:00,90.9,66.9,29.99,East,89,10.4,13.0,45,0.00,,,0.04,WUHU216DAVISVP2,2013-09-11 18:58:00,
2013-09-11 14:00:00,90.8,67.8,29.99,East,97,5.4,10.0,47,0.00,,,0.04,WUHU216DAVISVP2,2013-09-11 19:00:00,
2013-09-11 14:28:00,91.5,66.8,29.98,East,82,6.5,14.3,44,0.00,,,0.04,WUHU216DAVISVP2,2013-09-11 19:28:00,
2013-09-11 14:30:00,91.7,66.0,29.98,East,97,6.8,11.0,43,0.00,,,0.04,WUHU216DAVISVP2,2013-09-11 19:30:00,
2013-09-11 14:58:00,91.3,67.3,29.97,East,99,9.1,12.0,45,0.00,,,0.04,WUHU216DAVISVP2,2013-09-11 19:58:00,
2013-09-11 15:00:00,91.7,66.0,29.97,East,97,5.4,12.0,43,0.00,,,0.04,WUHU216DAVISVP2,2013-09-11 20:00:00,
2013-09-11 15:28:00,92.2,67.4,29.94,East,87,6.5,11.0,44,0.00,,,0.04,WUHU216DAVISVP2,2013-09-11 20:28:00,
2013-09-11 15:30:00,92.9,67.8,29.95,East,97,5.4,11.0,44,0.00,,,0.04,WUHU216DAVISVP2,2013-09-11 20:30:00,
2013-09-11 15:58:00,92.6,65.7,29.94,ESE,121,2.6,9.1,41,0.00,,,0.04,WUHU216DAVISVP2,2013-09-11 20:58:00,
2013-09-11 16:00:00,92.7,66.2,29.94,East,97,5.4,8.0,42,0.00,,,0.04,WUHU216DAVISVP2,2013-09-11 21:00:00,
2013-09-11 16:28:00,93.7,65.2,29.94,ESE,105,1.3,15.6,39,0.00,,,0.04,WUHU216DAVISVP2,2013-09-11 21:28:00,
2013-09-11 16:30:00,93.1,65.9,29.94,East,97,5.4,12.0,41,0.00,,,0.04,WUHU216DAVISVP2,2013-09-11 21:30:00,
2013-09-11 16:58:00,93.3,64.1,29.94,East,91,6.5,14.3,38,0.00,,,0.04,WUHU216DAVISVP2,2013-09-11 21:58:00,
2013-09-11 17:00:00,92.9,64.3,29.93,East,97,4.1,12.0,39,0.00,,,0.04,WUHU216DAVISVP2,2013-09-11 22:00:00,
2013-09-11 17:28:00,92.0,63.7,29.93,South,169,6.5,11.7,39,0.00,,,0.04,WUHU216DAVISVP2,2013-09-11 22:28:00,
2013-09-11 17:30:00,92.2,64.4,29.93,East,97,5.4,10.0,40,0.00,,,0.04,WUHU216DAVISVP2,2013-09-11 22:30:00,
2013-09-11 17:58:00,89.6,70.6,29.93,ESE,102,10.4,14.3,53,0.00,,,0.04,WUHU216DAVISVP2,2013-09-11 22:58:00,
2013-09-11 18:00:00,89.1,70.3,29.93,East,97,8.1,11.0,54,0.00,,,0.04,WUHU216DAVISVP2,2013-09-11 23:00:00,
2013-09-11 18:28:00,88.4,70.0,29.93,SE,137,6.5,14.3,54,0.00,,,0.04,WUHU216DAVISVP2,2013-09-11 23:28:00,
2013-09-11 18:30:00,88.3,69.5,29.93,East,97,9.4,14.0,54,0.00,,,0.04,WUHU216DAVISVP2,2013-09-11 23:30:00,
2013-09-11 18:58:00,86.8,70.2,29.93,East,97,7.8,11.0,57,0.00,,,0.04,WUHU216DAVISVP2,2013-09-11 23:58:00,
2013-09-11 19:00:00,86.5,69.5,29.93,East,97,6.8,11.0,57,0.00,,,0.04,WUHU216DAVISVP2,2013-09-12 00:00:00,
2013-09-11 19:28:00,84.9,69.9,29.93,SE,135,3.9,13.0,60,0.00,,,0.04,WUHU216DAVISVP2,2013-09-12 00:28:00,
2013-09-11 19:30:00,84.7,70.2,29.93,SE,142,5.4,10.0,62,0.00,,,0.04,WUHU216DAVISVP2,2013-09-12 00:30:00,
2013-09-11 19:58:00,83.5,71.3,29.94,ESE,105,1.3,8.0,66,0.00,,,0.04,WUHU216DAVISVP2,2013-09-12 00:58:00,
2013-09-11 20:00:00,83.3,71.2,29.95,ESE,120,4.1,8.0,67,0.00,,,0.04,WUHU216DAVISVP2,2013-09-12 01:00:00,
2013-09-11 20:28:00,82.1,71.7,29.95,ESE,105,1.3,4.0,70,0.00,,,0.04,WUHU216DAVISVP2,2013-09-12 01:28:00,
2013-09-11 20:30:00,82.0,71.7,29.96,ESE,120,1.4,7.0,71,0.00,,,0.04,WUHU216DAVISVP2,2013-09-12 01:30:00,
2013-09-11 20:58:00,80.8,72.4,29.97,ESE,105,0.0,1.3,75,0.00,,,0.04,WUHU216DAVISVP2,2013-09-12 01:58:00,
2013-09-11 21:00:00,80.6,71.9,29.97,East,97,0.0,1.0,75,0.00,,,0.04,WUHU216DAVISVP2,2013-09-12 02:00:00,
2013-09-11 21:28:00,80.1,72.5,29.98,ESE,106,0.0,2.0,77,0.00,,,0.04,WUHU216DAVISVP2,2013-09-12 02:28:00,
2013-09-11 21:30:00,80.0,72.5,29.98,East,97,0.0,2.0,78,0.00,,,0.04,WUHU216DAVISVP2,2013-09-12 02:30:00,
2013-09-11 21:58:00,79.6,72.7,29.99,ESE,106,0.0,1.0,79,0.00,,,0.04,WUHU216DAVISVP2,2013-09-12 02:58:00,
2013-09-11 22:00:00,79.5,72.4,29.99,East,97,0.0,1.0,79,0.00,,,0.04,WUHU216DAVISVP2,2013-09-12 03:00:00,
2013-09-11 22:28:00,79.0,72.9,29.99,ESE,106,0.0,0.0,81,0.00,,,0.04,WUHU216DAVISVP2,2013-09-12 03:28:00,
2013-09-11 22:30:00,78.9,72.6,29.99,North,7,0.0,0.0,81,0.00,,,0.04,WUHU216DAVISVP2,2013-09-12 03:30:00,
2013-09-11 22:58:00,78.2,72.4,29.99,ESE,106,0.0,0.0,82,0.00,,,0.04,WUHU216DAVISVP2,2013-09-12 03:58:00,
2013-09-11 23:00:00,78.0,72.1,29.99,North,7,0.0,0.0,82,0.00,,,0.04,WUHU216DAVISVP2,2013-09-12 04:00:00,
2013-09-11 23:28:00,77.1,71.7,29.99,ESE,106,0.0,0.0,83,0.00,,,0.04,WUHU216DAVISVP2,2013-09-12 04:28:00,
2013-09-11 23:30:00,77.0,71.8,29.99,North,7,0.0,0.0,84,0.00,,,0.04,WUHU216DAVISVP2,2013-09-12 04:30:00,
2013-09-11 23:58:00,76.2,71.8,29.99,ESE,106,0.0,0.0,86,0.00,,,0.04,WUHU216DAVISVP2,2013-09-12 04:58:00,